createdAt,value
2022-12-11T00:00:30.840Z,98986.03
2022-12-11T00:02:58.373Z,98993.22
2022-12-11T00:05:25.942Z,99005.53
2022-12-11T00:07:53.506Z,98996.66
2022-12-11T00:10:21.156Z,99005.59
2022-12-11T00:12:48.673Z,99018.25
2022-12-11T00:15:16.178Z,99021.50
2022-12-11T00:17:43.687Z,99003.47
2022-12-11T00:20:11.624Z,99008.69
2022-12-11T00:22:39.190Z,99013.63
2022-12-11T00:25:06.960Z,99018.19
2022-12-11T00:27:35.035Z,99019.72
2022-12-11T00:30:02.589Z,99014.75
2022-12-11T00:32:32.606Z,99016.28
2022-12-11T00:35:04.255Z,99009.25
2022-12-11T00:37:31.840Z,99012.41
2022-12-11T00:39:59.397Z,99019.56
2022-12-11T00:42:26.849Z,99015.94
2022-12-11T00:44:56.148Z,99027.94
2022-12-11T00:47:23.783Z,99022.78
2022-12-11T00:49:51.376Z,99023.81
2022-12-11T00:52:18.851Z,99032.38
2022-12-11T00:54:46.387Z,99029.38
2022-12-11T00:57:13.908Z,99015.56
2022-12-11T00:59:41.433Z,99043.91
2022-12-11T01:02:08.914Z,99041.81
2022-12-11T01:04:37.305Z,99028.06
2022-12-11T01:07:05.031Z,99044.03
2022-12-11T01:09:51.321Z,99043.75
2022-12-11T01:12:18.916Z,99035.88
2022-12-11T01:14:46.385Z,99046.19
2022-12-11T01:17:13.889Z,99035.41
2022-12-11T01:19:41.398Z,99037.19
2022-12-11T01:22:09.119Z,99043.63
2022-12-11T01:24:36.922Z,99045.69
2022-12-11T01:27:05.466Z,99046.81
2022-12-11T01:29:32.909Z,99044.41
2022-12-11T01:32:00.378Z,99043.63
2022-12-11T01:34:32.248Z,99049.94
2022-12-11T01:36:59.864Z,99050.94
2022-12-11T01:39:27.381Z,99057.84
2022-12-11T01:41:59.000Z,99072.75
2022-12-11T01:44:26.887Z,99063.50
2022-12-11T01:46:54.645Z,99059.38
2022-12-11T01:49:26.222Z,99068.44
2022-12-11T01:51:59.153Z,99060.56
2022-12-11T01:54:28.245Z,99063.09
2022-12-11T01:57:00.220Z,99058.47
2022-12-11T01:59:31.172Z,99059.44
2022-12-11T02:02:19.456Z,99066.94
2022-12-11T02:04:48.454Z,99067.72
2022-12-11T02:07:16.120Z,99066.72
2022-12-11T02:09:46.666Z,99055.00
2022-12-11T02:12:36.120Z,99073.91
2022-12-11T02:15:25.324Z,99074.03
2022-12-11T02:18:17.733Z,99082.13
2022-12-11T02:20:55.617Z,99072.63
2022-12-11T02:23:39.062Z,99066.31
2022-12-11T02:26:21.055Z,99077.91
2022-12-11T02:28:48.430Z,99075.75
2022-12-11T02:31:32.766Z,99077.69
2022-12-11T02:34:36.673Z,99080.25
2022-12-11T02:37:09.721Z,99083.69
2022-12-11T02:39:41.640Z,99086.97
2022-12-11T02:42:11.408Z,99084.41
2022-12-11T02:44:40.993Z,99076.78
2022-12-11T02:47:12.965Z,99082.13
2022-12-11T02:49:43.426Z,99066.66
2022-12-11T02:52:13.450Z,99074.19
2022-12-11T02:54:43.364Z,99055.72
2022-12-11T02:57:33.592Z,99071.66
2022-12-11T03:00:01.132Z,99055.47
2022-12-11T03:02:28.676Z,99061.38
2022-12-11T03:04:57.729Z,99064.34
2022-12-11T03:07:29.539Z,99053.72
2022-12-11T03:09:57.210Z,99065.00
2022-12-11T03:12:29.268Z,99064.13
2022-12-11T03:15:00.660Z,99060.03
2022-12-11T03:17:42.806Z,99070.59
2022-12-11T03:20:21.405Z,99074.25
2022-12-11T03:22:59.527Z,99077.69
2022-12-11T03:25:35.569Z,99085.81
2022-12-11T03:28:32.039Z,99095.19
2022-12-11T03:31:05.473Z,99094.50
2022-12-11T03:33:37.808Z,99100.72
2022-12-11T03:36:09.945Z,99104.41
2022-12-11T03:38:44.296Z,99104.34
2022-12-11T03:41:13.635Z,99112.16
2022-12-11T03:43:41.658Z,99110.22
2022-12-11T03:46:11.693Z,99107.28
2022-12-11T03:48:42.483Z,99110.81
2022-12-11T03:51:10.006Z,99114.66
2022-12-11T03:53:38.773Z,99112.88
2022-12-11T03:56:09.100Z,99119.31
2022-12-11T03:58:36.551Z,99118.31
2022-12-11T04:01:04.233Z,99124.16
2022-12-11T04:03:31.656Z,99134.50
2022-12-11T04:05:59.961Z,99141.19
2022-12-11T04:08:27.927Z,99130.38
2022-12-11T04:11:14.301Z,99122.72
2022-12-11T04:13:41.893Z,99130.84
2022-12-11T04:16:09.760Z,99127.44
2022-12-11T04:18:55.671Z,99132.03
2022-12-11T04:21:41.747Z,99131.41
2022-12-11T04:24:15.289Z,99139.97
2022-12-11T04:26:47.251Z,99132.13
2022-12-11T04:29:15.623Z,99144.47
2022-12-11T04:31:43.018Z,99145.31
2022-12-11T04:34:10.532Z,99139.09
2022-12-11T04:36:38.300Z,99132.16
2022-12-11T04:39:06.140Z,99132.06
2022-12-11T04:41:34.173Z,99117.97
2022-12-11T04:44:01.765Z,99142.69
2022-12-11T04:46:29.451Z,99131.16
2022-12-11T04:48:58.126Z,99128.84
2022-12-11T04:51:26.175Z,99147.97
2022-12-11T04:53:53.638Z,99132.28
2022-12-11T04:56:21.279Z,99140.91
2022-12-11T04:58:48.884Z,99147.03
2022-12-11T05:01:23.392Z,99154.13
2022-12-11T05:03:51.171Z,99151.53
2022-12-11T05:06:18.623Z,99141.88
2022-12-11T05:08:46.148Z,99142.53
2022-12-11T05:11:15.846Z,99136.69
2022-12-11T05:13:44.123Z,99136.88
2022-12-11T05:16:13.752Z,99134.53
2022-12-11T05:18:41.240Z,99129.38
2022-12-11T05:21:11.510Z,99123.28
2022-12-11T05:23:39.334Z,99128.63
2022-12-11T05:26:18.864Z,99141.88
2022-12-11T05:28:46.976Z,99143.84
2022-12-11T05:31:17.562Z,99138.28
2022-12-11T05:33:46.266Z,99140.34
2022-12-11T05:36:26.282Z,99145.44
2022-12-11T05:38:54.354Z,99144.41
2022-12-11T05:41:24.410Z,99136.81
2022-12-11T05:43:52.447Z,99136.91
2022-12-11T05:46:22.610Z,99131.28
2022-12-11T05:48:52.789Z,99133.44
2022-12-11T05:51:20.532Z,99127.94
2022-12-11T05:53:49.746Z,99133.38
2022-12-11T05:56:23.244Z,99131.47
2022-12-11T05:58:51.087Z,99128.00
2022-12-11T06:01:32.509Z,99115.69
2022-12-11T06:04:01.101Z,99112.91
2022-12-11T06:06:28.844Z,99118.69
2022-12-11T06:08:58.139Z,99114.63
2022-12-11T06:11:28.270Z,99115.72
2022-12-11T06:13:56.025Z,99120.75
2022-12-11T06:16:23.756Z,99108.47
2022-12-11T06:18:52.939Z,99103.50
2022-12-11T06:21:29.977Z,99106.28
2022-12-11T06:23:59.066Z,99102.66
2022-12-11T06:26:27.449Z,99108.81
2022-12-11T06:28:54.947Z,99110.56
2022-12-11T06:31:22.599Z,99114.88
2022-12-11T06:33:50.134Z,99095.47
2022-12-11T06:36:19.742Z,99115.63
2022-12-11T06:38:47.973Z,99112.06
2022-12-11T06:41:16.009Z,99112.31
2022-12-11T06:43:43.599Z,99130.84
2022-12-11T06:46:15.769Z,99139.53
2022-12-11T06:48:44.300Z,99124.25
2022-12-11T06:51:15.298Z,99132.34
2022-12-11T06:53:44.093Z,99139.63
2022-12-11T06:56:15.670Z,99138.59
2022-12-11T06:58:44.088Z,99138.19
2022-12-11T07:01:24.236Z,99140.38
2022-12-11T07:03:57.421Z,99149.13
2022-12-11T07:06:26.280Z,99151.63
2022-12-11T07:08:54.526Z,99155.13
2022-12-11T07:11:22.289Z,99150.53
2022-12-11T07:13:49.947Z,99152.63
2022-12-11T07:16:18.789Z,99138.75
2022-12-11T07:18:51.324Z,99140.22
2022-12-11T07:21:20.452Z,99148.81
2022-12-11T07:23:49.159Z,99157.88
2022-12-11T07:26:19.972Z,99161.75
2022-12-11T07:28:47.562Z,99152.84
2022-12-11T07:31:21.044Z,99155.94
2022-12-11T07:33:52.619Z,99167.47
2022-12-11T07:36:20.019Z,99164.84
2022-12-11T07:38:47.441Z,99175.25
2022-12-11T07:41:15.603Z,99175.94
2022-12-11T07:43:44.286Z,99169.91
2022-12-11T07:46:14.485Z,99170.19
2022-12-11T07:48:44.823Z,99181.16
2022-12-11T07:51:20.021Z,99179.78
2022-12-11T07:53:49.757Z,99188.72
2022-12-11T07:56:18.696Z,99196.88
2022-12-11T07:58:47.491Z,99218.66
2022-12-11T08:01:27.739Z,99229.50
2022-12-11T08:03:56.695Z,99229.94
2022-12-11T08:06:29.502Z,99236.59
2022-12-11T08:08:59.168Z,99233.78
2022-12-11T08:11:26.957Z,99236.41
2022-12-11T08:13:55.135Z,99239.81
2022-12-11T08:16:22.970Z,99242.56
2022-12-11T08:18:50.494Z,99247.09
2022-12-11T08:21:20.919Z,99249.75
2022-12-11T08:23:49.500Z,99252.22
2022-12-11T08:26:21.412Z,99260.25
2022-12-11T08:28:48.950Z,99270.78
2022-12-11T08:31:17.320Z,99267.31
2022-12-11T08:33:45.654Z,99269.81
2022-12-11T08:36:15.760Z,99282.06
2022-12-11T08:38:43.435Z,99276.81
2022-12-11T08:41:13.279Z,99280.47
2022-12-11T08:43:41.085Z,99283.47
2022-12-11T08:46:09.309Z,99283.25
2022-12-11T08:48:38.324Z,99292.84
2022-12-11T08:51:09.231Z,99295.44
2022-12-11T08:53:37.197Z,99305.94
2022-12-11T08:56:07.253Z,99305.09
2022-12-11T08:58:35.810Z,99308.97
2022-12-11T09:01:12.424Z,99310.91
2022-12-11T09:03:41.034Z,99314.03
2022-12-11T09:06:11.563Z,99319.97
2022-12-11T09:08:39.831Z,99320.13
2022-12-11T09:11:13.975Z,99331.03
2022-12-11T09:13:41.901Z,99328.38
2022-12-11T09:16:16.845Z,99327.41
2022-12-11T09:18:47.392Z,99333.66
2022-12-11T09:21:17.123Z,99344.19
2022-12-11T09:23:45.103Z,99343.09
2022-12-11T09:26:15.069Z,99345.19
2022-12-11T09:28:46.329Z,99348.47
2022-12-11T09:31:14.082Z,99353.56
2022-12-11T09:33:41.872Z,99351.97
2022-12-11T09:36:10.090Z,99357.31
2022-12-11T09:38:38.378Z,99352.81
2022-12-11T09:41:37.690Z,99354.34
2022-12-11T09:44:11.307Z,99354.59
2022-12-11T09:46:40.340Z,99360.69
2022-12-11T09:49:21.766Z,99357.06
2022-12-11T09:52:07.105Z,99357.81
2022-12-11T09:54:34.814Z,99361.34
2022-12-11T09:57:13.300Z,99361.41
2022-12-11T09:59:51.820Z,99364.03
2022-12-11T10:02:34.187Z,99357.03
2022-12-11T10:05:36.983Z,99357.88
2022-12-11T10:08:41.417Z,99346.44
2022-12-11T10:11:28.684Z,99352.56
2022-12-11T10:14:32.264Z,99339.25
2022-12-11T10:17:08.671Z,99338.47
2022-12-11T10:19:36.377Z,99343.72
2022-12-11T10:22:04.189Z,99346.16
2022-12-11T10:27:31.464Z,99354.19
2022-12-11T10:30:08.166Z,99356.03
2022-12-11T10:33:04.352Z,99358.50
2022-12-11T10:35:52.136Z,99360.25
2022-12-11T10:38:35.227Z,99353.28
2022-12-11T10:41:06.131Z,99350.88
2022-12-11T10:43:42.682Z,99346.31
2022-12-11T10:46:24.240Z,99350.00
2022-12-11T10:48:59.934Z,99352.28
2022-12-11T10:51:30.374Z,99357.59
2022-12-11T10:54:16.583Z,99360.75
2022-12-11T10:56:47.116Z,99358.75
2022-12-11T10:59:44.083Z,99354.28
2022-12-11T11:02:28.693Z,99350.81
2022-12-11T11:05:00.218Z,99349.88
2022-12-11T11:07:33.184Z,99365.81
2022-12-11T11:10:17.288Z,99349.72
2022-12-11T11:12:50.347Z,99352.34
2022-12-11T11:15:19.467Z,99361.97
2022-12-11T11:17:55.833Z,99354.47
2022-12-11T11:20:31.010Z,99354.97
2022-12-11T11:23:14.239Z,99362.03
2022-12-11T11:25:59.571Z,99367.28
2022-12-11T11:28:35.401Z,99371.66
2022-12-11T11:31:08.256Z,99360.53
2022-12-11T11:33:37.942Z,99362.41
2022-12-11T11:36:20.226Z,99364.19
2022-12-11T11:39:17.815Z,99357.28
2022-12-11T11:42:08.717Z,99366.94
2022-12-11T11:44:47.344Z,99368.50
2022-12-11T11:47:20.000Z,99373.31
2022-12-11T11:50:12.933Z,99373.63
2022-12-11T11:52:58.876Z,99375.72
2022-12-11T11:55:29.211Z,99382.91
2022-12-11T11:57:59.458Z,99380.38
2022-12-11T12:00:33.537Z,99383.75
2022-12-11T12:03:06.252Z,99382.91
2022-12-11T12:05:41.039Z,99386.94
2022-12-11T12:08:14.424Z,99388.63
2022-12-11T12:10:51.888Z,99398.00
2022-12-11T12:13:52.508Z,99391.00
2022-12-11T12:16:52.656Z,99392.66
2022-12-11T12:19:38.577Z,99393.41
2022-12-11T12:22:37.464Z,99396.13
2022-12-11T12:25:18.815Z,99409.50
2022-12-11T12:28:24.109Z,99401.53
2022-12-11T12:31:03.806Z,99407.72
2022-12-11T12:33:52.927Z,99409.75
2022-12-11T12:36:46.243Z,99414.06
2022-12-11T12:39:25.777Z,99421.97
2022-12-11T12:42:07.054Z,99421.09
2022-12-11T12:44:57.963Z,99424.59
2022-12-11T12:47:30.708Z,99433.63
2022-12-11T12:50:00.093Z,99435.81
2022-12-11T12:52:38.706Z,99436.56
2022-12-11T12:55:23.818Z,99445.44
2022-12-11T12:57:54.239Z,99439.44
2022-12-11T13:00:32.995Z,99447.56
2022-12-11T13:03:15.551Z,99437.19
2022-12-11T13:06:01.913Z,99451.16
2022-12-11T13:08:50.801Z,99449.22
2022-12-11T13:11:21.088Z,99448.53
2022-12-11T13:14:03.208Z,99453.31
2022-12-11T13:16:40.224Z,99450.06
2022-12-11T13:19:23.006Z,99461.78
2022-12-11T13:22:12.346Z,99472.16
2022-12-11T13:24:48.771Z,99471.31
2022-12-11T13:27:35.025Z,99475.81
2022-12-11T13:30:07.630Z,99479.44
2022-12-11T13:32:35.336Z,99483.94
2022-12-11T13:35:06.097Z,99472.91
2022-12-11T13:37:43.410Z,99472.41
2022-12-11T13:40:35.396Z,99478.47
2022-12-11T13:43:07.263Z,99484.78
2022-12-11T13:45:51.257Z,99492.47
2022-12-11T13:48:32.116Z,99489.97
2022-12-11T13:51:00.296Z,99499.19
2022-12-11T13:53:27.980Z,99487.19
2022-12-11T13:56:07.477Z,99492.16
2022-12-11T13:58:38.797Z,99491.00
2022-12-11T14:01:11.248Z,99497.19
2022-12-11T14:04:09.528Z,99487.56
2022-12-11T14:06:38.980Z,99480.03
2022-12-11T14:09:08.467Z,99499.19
2022-12-11T14:11:40.197Z,99504.47
2022-12-11T14:14:21.270Z,99512.25
2022-12-11T14:16:51.620Z,99521.69
2022-12-11T14:19:21.372Z,99514.81
2022-12-11T14:22:03.023Z,99520.88
2022-12-11T14:24:31.336Z,99517.63
2022-12-11T14:26:59.010Z,99503.59
2022-12-11T14:29:35.452Z,99504.25
2022-12-11T14:32:06.626Z,99506.09
2022-12-11T14:34:44.378Z,99506.97
2022-12-11T14:37:17.819Z,99506.22
2022-12-11T14:39:53.180Z,99516.97
2022-12-11T14:42:39.996Z,99508.16
2022-12-11T14:45:09.611Z,99518.53
2022-12-11T14:47:44.274Z,99510.50
2022-12-11T14:50:23.092Z,99514.03
2022-12-11T14:52:59.384Z,99509.91
2022-12-11T14:55:29.911Z,99534.44
2022-12-11T14:58:00.695Z,99538.75
2022-12-11T15:00:35.897Z,99527.38
2022-12-11T15:03:08.052Z,99538.91
2022-12-11T15:05:40.573Z,99536.31
2022-12-11T15:08:08.372Z,99540.72
2022-12-11T15:11:02.044Z,99537.34
2022-12-11T15:13:30.441Z,99556.69
2022-12-11T15:15:59.260Z,99540.00
2022-12-11T15:18:30.939Z,99545.19
2022-12-11T15:21:01.308Z,99547.69
2022-12-11T15:23:30.015Z,99539.78
2022-12-11T15:26:00.404Z,99549.16
2022-12-11T15:28:27.787Z,99551.91
2022-12-11T15:30:58.611Z,99557.19
2022-12-11T15:33:31.149Z,99552.06
2022-12-11T15:36:21.591Z,99560.91
2022-12-11T15:38:49.075Z,99563.19
2022-12-11T15:41:24.674Z,99552.75
2022-12-11T15:43:58.582Z,99548.34
2022-12-11T15:46:27.311Z,99557.84
2022-12-11T15:48:56.799Z,99551.50
2022-12-11T15:51:25.380Z,99569.81
2022-12-11T15:53:52.928Z,99573.56
2022-12-11T15:56:20.403Z,99584.31
2022-12-11T15:58:49.396Z,99587.84
2022-12-11T16:01:17.513Z,99574.56
2022-12-11T16:03:45.853Z,99588.63
2022-12-11T16:06:13.913Z,99588.03
2022-12-11T16:08:41.368Z,99592.22
2022-12-11T16:11:12.872Z,99587.94
2022-12-11T16:13:40.316Z,99594.88
2022-12-11T16:16:08.099Z,99600.41
2022-12-11T16:18:35.604Z,99612.75
2022-12-11T16:21:06.380Z,99610.16
2022-12-11T16:23:33.906Z,99603.94
2022-12-11T16:26:06.087Z,99614.44
2022-12-11T16:28:33.959Z,99609.09
2022-12-11T16:31:01.907Z,99627.75
2022-12-11T16:33:29.434Z,99606.78
2022-12-11T16:35:57.913Z,99638.34
2022-12-11T16:38:25.437Z,99626.75
2022-12-11T16:41:01.027Z,99634.50
2022-12-11T16:43:28.447Z,99630.13
2022-12-11T16:45:56.139Z,99636.13
2022-12-11T16:48:23.700Z,99642.28
2022-12-11T16:50:54.530Z,99651.03
2022-12-11T16:53:25.047Z,99630.97
2022-12-11T16:55:52.630Z,99636.22
2022-12-11T16:58:20.150Z,99638.75
2022-12-11T17:00:48.664Z,99647.72
2022-12-11T17:03:16.510Z,99645.91
2022-12-11T17:05:44.258Z,99639.06
2022-12-11T17:08:12.999Z,99643.44
2022-12-11T17:10:42.070Z,99638.22
2022-12-11T17:13:09.439Z,99644.44
2022-12-11T17:15:41.107Z,99642.81
2022-12-11T17:18:09.576Z,99644.53
2022-12-11T17:20:44.648Z,99639.34
2022-12-11T17:23:13.296Z,99638.47
2022-12-11T17:25:42.244Z,99641.13
2022-12-11T17:28:10.247Z,99642.03
2022-12-11T17:30:42.527Z,99647.28
2022-12-11T17:33:10.954Z,99649.19
2022-12-11T17:35:39.572Z,99642.19
2022-12-11T17:38:07.317Z,99655.22
2022-12-11T17:40:35.057Z,99642.00
2022-12-11T17:43:06.488Z,99645.59
2022-12-11T17:45:33.970Z,99655.31
2022-12-11T17:48:01.323Z,99660.50
2022-12-11T17:50:28.897Z,99657.81
2022-12-11T17:52:57.108Z,99660.53
2022-12-11T17:55:24.893Z,99663.13
2022-12-11T17:57:52.433Z,99661.38
2022-12-11T18:00:19.888Z,99659.69
2022-12-11T18:02:47.998Z,99670.09
2022-12-11T18:05:19.604Z,99662.97
2022-12-11T18:07:47.215Z,99659.53
2022-12-11T18:10:14.746Z,99669.13
2022-12-11T18:12:42.141Z,99667.44
2022-12-11T18:15:12.107Z,99672.66
2022-12-11T18:17:39.860Z,99663.97
2022-12-11T18:20:07.708Z,99674.16
2022-12-11T18:22:35.169Z,99673.34
2022-12-11T18:25:09.301Z,99653.38
2022-12-11T18:27:38.572Z,99676.00
2022-12-11T18:30:06.683Z,99676.00
2022-12-11T18:32:35.496Z,99683.72
2022-12-11T18:35:04.590Z,99684.72
2022-12-11T18:37:32.010Z,99664.53
2022-12-11T18:40:02.071Z,99669.94
2022-12-11T18:42:33.648Z,99665.59
2022-12-11T18:45:01.982Z,99675.34
2022-12-11T18:47:29.424Z,99686.59
2022-12-11T18:50:07.334Z,99677.19
2022-12-11T18:52:35.558Z,99692.22
2022-12-11T18:55:03.615Z,99688.66
2022-12-11T18:57:31.297Z,99708.56
2022-12-11T19:00:03.034Z,99700.53
2022-12-11T19:02:31.791Z,99694.66
2022-12-11T19:04:59.209Z,99684.88
2022-12-11T19:07:27.333Z,99705.91
2022-12-11T19:09:54.773Z,99706.50
2022-12-11T19:12:22.161Z,99719.00
2022-12-11T19:14:49.789Z,99713.88
2022-12-11T19:17:17.363Z,99708.69
2022-12-11T19:19:46.208Z,99711.22
2022-12-11T19:22:14.988Z,99708.75
2022-12-11T19:24:42.412Z,99713.97
2022-12-11T19:27:13.736Z,99723.50
2022-12-11T19:29:41.494Z,99722.63
2022-12-11T19:32:08.796Z,99721.75
2022-12-11T19:34:38.449Z,99725.38
2022-12-11T19:37:05.858Z,99727.06
2022-12-11T19:39:33.558Z,99728.78
2022-12-11T19:42:01.030Z,99736.03
2022-12-11T19:44:28.397Z,99731.41
2022-12-11T19:46:55.844Z,99740.91
2022-12-11T19:50:13.217Z,99741.06
2022-12-11T19:52:46.016Z,99742.91
2022-12-11T19:55:15.069Z,99746.38
2022-12-11T19:57:42.763Z,99746.44
2022-12-11T20:00:10.523Z,99737.75
2022-12-11T20:02:41.444Z,99747.34
2022-12-11T20:05:09.797Z,99744.53
2022-12-11T20:07:37.355Z,99747.25
2022-12-11T20:10:05.370Z,99739.41
2022-12-11T20:12:32.836Z,99741.22
2022-12-11T20:15:00.267Z,99753.56
2022-12-11T20:17:27.725Z,99767.44
2022-12-11T20:19:55.085Z,99752.63
2022-12-11T20:22:22.532Z,99752.72
2022-12-11T20:24:50.149Z,99768.41
2022-12-11T20:27:17.956Z,99770.88
2022-12-11T20:29:45.456Z,99784.09
2022-12-11T20:32:13.533Z,99776.06
2022-12-11T20:34:41.335Z,99766.56
2022-12-11T20:37:09.073Z,99772.66
2022-12-11T20:39:36.844Z,99776.00
2022-12-11T20:42:05.058Z,99781.22
2022-12-11T20:44:32.749Z,99795.38
2022-12-11T20:47:00.250Z,99803.44
2022-12-11T20:49:27.703Z,99790.88
2022-12-11T20:51:56.518Z,99776.19
2022-12-11T20:54:24.041Z,99771.06
2022-12-11T20:56:51.591Z,99786.75
2022-12-11T20:59:19.239Z,99792.13
2022-12-11T21:01:46.857Z,99804.41
2022-12-11T21:04:14.311Z,99784.13
2022-12-11T21:06:42.197Z,99807.97
2022-12-11T21:09:13.541Z,99803.59
2022-12-11T21:11:40.959Z,99786.16
2022-12-11T21:14:08.380Z,99804.13
2022-12-11T21:16:37.773Z,99809.53
2022-12-11T21:19:05.933Z,99806.84
2022-12-11T21:21:42.213Z,99812.16
2022-12-11T21:24:16.756Z,99811.22
2022-12-11T21:26:45.152Z,99807.16
2022-12-11T21:29:12.939Z,99822.19
2022-12-11T21:31:41.893Z,99822.06
2022-12-11T21:34:09.828Z,99824.75
2022-12-11T21:36:37.262Z,99821.16
2022-12-11T21:39:05.049Z,99816.97
2022-12-11T21:41:32.600Z,99824.56
2022-12-11T21:45:25.834Z,99827.06
2022-12-11T21:46:47.603Z,99849.06
2022-12-11T21:49:15.105Z,99847.41
2022-12-11T21:51:47.216Z,99847.44
2022-12-11T21:54:17.594Z,99830.25
2022-12-11T21:56:45.822Z,99850.28
2022-12-11T21:59:14.003Z,99843.16
2022-12-11T22:01:45.850Z,99845.84
2022-12-11T22:04:14.373Z,99853.63
2022-12-11T22:06:46.907Z,99844.03
2022-12-11T22:09:16.029Z,99846.25
2022-12-11T22:11:45.506Z,99854.94
2022-12-11T22:14:15.121Z,99856.78
2022-12-11T22:16:43.357Z,99862.78
2022-12-11T22:19:11.568Z,99867.41
2022-12-11T22:21:39.046Z,99856.84
2022-12-11T22:24:07.343Z,99867.16
2022-12-11T22:26:34.796Z,99876.13
2022-12-11T22:29:02.199Z,99862.94
2022-12-11T22:31:29.640Z,99863.91
2022-12-11T22:33:57.358Z,99876.97
2022-12-11T22:36:26.690Z,99871.72
2022-12-11T22:41:42.344Z,99875.78
2022-12-11T22:44:15.864Z,99862.81
2022-12-11T22:46:49.645Z,99868.88
2022-12-11T22:49:18.978Z,99866.38
2022-12-11T22:51:46.466Z,99865.44
2022-12-11T22:54:13.844Z,99871.63
2022-12-11T22:56:41.246Z,99872.59
2022-12-11T22:59:08.802Z,99864.69
2022-12-11T23:01:36.397Z,99869.16
2022-12-11T23:04:03.884Z,99869.00
2022-12-11T23:06:31.361Z,99863.81
2022-12-11T23:09:00.211Z,99875.28
2022-12-11T23:11:37.023Z,99871.69
2022-12-11T23:14:06.258Z,99877.72
2022-12-11T23:16:34.000Z,99875.91
2022-12-11T23:19:01.472Z,99869.09
2022-12-11T23:21:29.548Z,99872.75
2022-12-11T23:23:59.483Z,99873.75
2022-12-11T23:26:28.092Z,99868.47
2022-12-11T23:28:57.328Z,99843.09
2022-12-11T23:31:26.135Z,99865.09
2022-12-11T23:33:53.927Z,99844.19
2022-12-11T23:36:21.617Z,99850.38
2022-12-11T23:38:54.261Z,99844.13
2022-12-11T23:41:22.978Z,99860.00
2022-12-11T23:43:50.555Z,99859.16
2022-12-11T23:46:21.269Z,99854.91
2022-12-11T23:48:49.383Z,99861.97
2022-12-11T23:51:19.409Z,99846.91
2022-12-11T23:53:47.238Z,99847.00
2022-12-11T23:56:18.380Z,99850.66
2022-12-11T23:58:46.920Z,99858.59
